Time,TemperatureF,DewpointF,PressureIn,WindDirection,WindDirectionDegrees,WindSpeedMPH,WindSpeedGustMPH,Humidity,HourlyPrecipIn,Conditions,Clouds,dailyrainin,SoftwareType,DateUTC
2013-02-15 06:19:00,48.7,31.4,29.65,North,353,4.0,4.0,51,0.00,,---,0.00,VWS V13.01,2013-02-15 12:19:00,
2013-02-15 06:24:00,48.7,31.4,29.65,NW,324,4.0,4.9,51,0.00,,---,0.00,VWS V13.01,2013-02-15 12:24:00,
2013-02-15 06:29:00,48.7,31.4,29.65,NE,34,10.5,10.5,51,0.00,,---,0.00,VWS V13.01,2013-02-15 12:29:00,
2013-02-15 06:34:00,48.6,31.3,29.65,NNE,20,7.6,7.6,51,0.00,,---,0.00,VWS V13.01,2013-02-15 12:34:00,
2013-02-15 06:39:00,48.6,31.3,29.65,NW,306,8.3,8.3,51,0.00,,---,0.00,VWS V13.01,2013-02-15 12:39:00,
2013-02-15 06:44:00,48.6,31.8,29.65,NW,324,2.7,2.7,52,0.00,,---,0.00,VWS V13.01,2013-02-15 12:44:00,
2013-02-15 06:49:00,48.4,31.6,29.65,North,353,8.1,8.3,52,0.00,,---,0.00,VWS V13.01,2013-02-15 12:49:00,
2013-02-15 06:54:00,48.0,31.7,29.68,North,10,8.7,13.2,53,0.00,,---,0.00,VWS V13.01,2013-02-15 12:54:00,
2013-02-15 06:59:00,47.8,31.5,29.68,North,351,5.8,11.0,53,0.00,,---,0.00,VWS V13.01,2013-02-15 12:59:00,
2013-02-15 07:04:00,47.5,30.8,29.68,North,0,12.3,13.2,52,0.00,,---,0.00,VWS V13.01,2013-02-15 13:04:00,
2013-02-15 07:09:00,47.3,30.1,29.68,North,357,8.7,11.4,51,0.00,,---,0.00,VWS V13.01,2013-02-15 13:09:00,
2013-02-15 07:14:00,47.1,30.4,29.68,NNE,32,6.3,10.5,52,0.00,,---,0.00,VWS V13.01,2013-02-15 13:14:00,
2013-02-15 07:19:00,47.1,30.4,29.68,North,0,6.3,6.3,52,0.00,,---,0.00,VWS V13.01,2013-02-15 13:19:00,
2013-02-15 07:24:00,46.9,29.8,29.68,North,0,6.3,6.3,51,0.00,,---,0.00,VWS V13.01,2013-02-15 13:24:00,
2013-02-15 07:29:00,46.8,30.1,29.68,NNE,12,11.0,11.0,52,0.00,,---,0.00,VWS V13.01,2013-02-15 13:29:00,
2013-02-15 07:34:00,46.8,30.1,29.68,North,6,6.3,6.3,52,0.00,,---,0.00,VWS V13.01,2013-02-15 13:34:00,
2013-02-15 07:39:00,46.8,30.1,29.68,North,1,6.3,8.7,52,0.00,,---,0.00,VWS V13.01,2013-02-15 13:39:00,
2013-02-15 07:44:00,46.8,30.1,29.68,NNE,14,6.3,6.3,52,0.00,,---,0.00,VWS V13.01,2013-02-15 13:44:00,
2013-02-15 07:49:00,46.8,30.5,29.68,North,357,8.1,11.0,53,0.00,,---,0.00,VWS V13.01,2013-02-15 13:49:00,
2013-02-15 07:54:00,46.8,30.5,29.68,NNE,24,5.8,5.8,53,0.00,,---,0.00,VWS V13.01,2013-02-15 13:54:00,
2013-02-15 07:59:00,46.8,31.0,29.68,NNE,24,5.8,5.8,54,0.00,,---,0.00,VWS V13.01,2013-02-15 13:59:00,
2013-02-15 08:04:00,46.8,31.5,29.68,NNE,24,5.8,5.8,55,0.00,,---,0.00,VWS V13.01,2013-02-15 14:04:00,
2013-02-15 08:09:00,46.6,31.3,29.68,NNE,24,5.8,5.8,55,0.00,,---,0.00,VWS V13.01,2013-02-15 14:09:00,
2013-02-15 08:14:00,46.6,31.3,29.71,NNE,24,5.8,5.8,55,0.00,,---,0.00,VWS V13.01,2013-02-15 14:14:00,
2013-02-15 08:19:00,46.6,32.2,29.71,NNE,24,5.8,5.8,57,0.00,,---,0.00,VWS V13.01,2013-02-15 14:19:00,
2013-02-15 08:24:00,46.4,32.9,29.71,NNE,24,5.8,5.8,59,0.00,,---,0.00,VWS V13.01,2013-02-15 14:24:00,
2013-02-15 08:29:00,46.4,32.9,29.71,NNE,24,5.8,5.8,59,0.00,,---,0.00,VWS V13.01,2013-02-15 14:29:00,
2013-02-15 08:34:00,46.2,32.7,29.71,NNE,24,5.8,5.8,59,0.00,,---,0.00,VWS V13.01,2013-02-15 14:34:00,
2013-02-15 08:39:00,46.2,32.7,29.71,NNE,24,5.8,5.8,59,0.00,,---,0.00,VWS V13.01,2013-02-15 14:39:00,
2013-02-15 08:44:00,46.2,32.3,29.71,NNE,24,5.8,5.8,58,0.00,,---,0.00,VWS V13.01,2013-02-15 14:44:00,
2013-02-15 08:49:00,46.4,32.0,29.71,NNE,24,5.8,5.8,57,0.00,,---,0.00,VWS V13.01,2013-02-15 14:49:00,
2013-02-15 08:54:00,46.4,32.0,29.71,NNE,24,5.8,5.8,57,0.00,,---,0.00,VWS V13.01,2013-02-15 14:54:00,
2013-02-15 08:59:00,46.2,32.3,29.71,NNE,24,5.8,5.8,58,0.00,,---,0.00,VWS V13.01,2013-02-15 14:59:00,
2013-02-15 09:04:00,46.2,32.3,29.71,North,5,4.0,4.0,58,0.00,,---,0.00,VWS V13.01,2013-02-15 15:04:00,
2013-02-15 09:09:00,46.4,32.4,29.71,North,5,4.0,4.0,58,0.00,,---,0.00,VWS V13.01,2013-02-15 15:09:00,
2013-02-15 09:14:00,46.6,32.6,29.71,North,5,4.0,4.0,58,0.00,,---,0.00,VWS V13.01,2013-02-15 15:14:00,
2013-02-15 09:18:00,46.4,31.6,29.71,North,5,4.0,4.0,56,0.00,,---,0.00,VWS V13.01,2013-02-15 15:18:00,
2013-02-15 09:23:00,46.6,31.7,29.71,North,5,4.0,4.0,56,0.00,,---,0.00,VWS V13.01,2013-02-15 15:23:00,
2013-02-15 09:28:00,46.6,31.7,29.71,North,5,4.0,4.0,56,0.00,,---,0.00,VWS V13.01,2013-02-15 15:28:00,
2013-02-15 09:33:00,46.6,30.4,29.71,North,5,4.0,4.0,53,0.00,,---,0.00,VWS V13.01,2013-02-15 15:33:00,
2013-02-15 09:38:00,46.6,30.8,29.71,North,5,4.0,4.0,54,0.00,,---,0.00,VWS V13.01,2013-02-15 15:38:00,
2013-02-15 09:43:00,46.6,30.4,29.71,North,5,4.0,4.0,53,0.00,,---,0.00,VWS V13.01,2013-02-15 15:43:00,
2013-02-15 09:48:00,46.6,30.4,29.71,North,5,4.0,4.0,53,0.00,,---,0.00,VWS V13.01,2013-02-15 15:48:00,
2013-02-15 09:53:00,46.6,30.4,29.74,North,5,4.0,4.0,53,0.00,,---,0.00,VWS V13.01,2013-02-15 15:53:00,
2013-02-15 09:58:00,46.8,29.6,29.74,North,5,4.0,4.0,51,0.00,,---,0.00,VWS V13.01,2013-02-15 15:58:00,
2013-02-15 10:03:00,46.8,29.6,29.74,North,5,4.0,4.0,51,0.00,,---,0.00,VWS V13.01,2013-02-15 16:03:00,
2013-02-15 10:08:00,46.8,29.6,29.74,North,5,4.0,4.0,51,0.00,,---,0.00,VWS V13.01,2013-02-15 16:08:00,
2013-02-15 10:13:00,46.9,28.8,29.74,North,5,4.0,4.0,49,0.00,,---,0.00,VWS V13.01,2013-02-15 16:13:00,
2013-02-15 10:18:00,46.9,29.3,29.74,North,5,4.0,4.0,50,0.00,,---,0.00,VWS V13.01,2013-02-15 16:18:00,
2013-02-15 10:23:00,47.1,28.5,29.74,North,5,4.0,4.0,48,0.00,,---,0.00,VWS V13.01,2013-02-15 16:23:00,
2013-02-15 10:28:00,47.1,28.5,29.74,North,5,4.0,4.0,48,0.00,,---,0.00,VWS V13.01,2013-02-15 16:28:00,
2013-02-15 10:33:00,47.1,28.5,29.74,North,5,4.0,4.0,48,0.00,,---,0.00,VWS V13.01,2013-02-15 16:33:00,
2013-02-15 10:38:00,47.1,28.5,29.74,North,5,4.0,4.0,48,0.00,,---,0.00,VWS V13.01,2013-02-15 16:38:00,
2013-02-15 10:43:00,47.1,28.5,29.74,North,5,4.0,4.0,48,0.00,,---,0.00,VWS V13.01,2013-02-15 16:43:00,
2013-02-15 10:48:00,47.1,28.5,29.74,North,5,4.0,4.0,48,0.00,,---,0.00,VWS V13.01,2013-02-15 16:48:00,
2013-02-15 10:53:00,47.1,28.5,29.74,North,5,4.0,4.0,48,0.00,,---,0.00,VWS V13.01,2013-02-15 16:53:00,
2013-02-15 10:58:00,47.1,28.5,29.74,North,5,4.0,4.0,48,0.00,,---,0.00,VWS V13.01,2013-02-15 16:58:00,
2013-02-15 11:03:00,47.1,28.5,29.74,North,5,4.0,4.0,48,0.00,,---,0.00,VWS V13.01,2013-02-15 17:03:00,
2013-02-15 11:08:00,47.1,28.5,29.74,North,5,4.0,4.0,48,0.00,,---,0.00,VWS V13.01,2013-02-15 17:08:00,
2013-02-15 11:13:00,47.5,27.2,29.74,North,5,4.0,4.0,45,0.00,,---,0.00,VWS V13.01,2013-02-15 17:13:00,
2013-02-15 11:18:00,47.5,27.2,29.74,North,5,4.0,4.0,45,0.00,,---,0.00,VWS V13.01,2013-02-15 17:18:00,
2013-02-15 11:23:00,47.5,27.2,29.74,North,5,4.0,4.0,45,0.00,,---,0.00,VWS V13.01,2013-02-15 17:23:00,
2013-02-15 11:28:00,47.5,27.2,29.77,North,5,4.0,4.0,45,0.00,,---,0.00,VWS V13.01,2013-02-15 17:28:00,
2013-02-15 11:33:00,47.5,27.2,29.77,North,5,4.0,4.0,45,0.00,,---,0.00,VWS V13.01,2013-02-15 17:33:00,
2013-02-15 11:38:00,47.5,27.2,29.77,North,5,4.0,4.0,45,0.00,,---,0.00,VWS V13.01,2013-02-15 17:38:00,
2013-02-15 11:43:00,47.5,27.2,29.77,North,5,4.0,4.0,45,0.00,,---,0.00,VWS V13.01,2013-02-15 17:43:00,
2013-02-15 11:48:00,47.5,27.2,29.77,North,5,4.0,4.0,45,0.00,,---,0.00,VWS V13.01,2013-02-15 17:48:00,
2013-02-15 11:53:00,47.5,27.2,29.74,North,5,4.0,4.0,45,0.00,,---,0.00,VWS V13.01,2013-02-15 17:53:00,
2013-02-15 11:58:00,47.5,27.2,29.74,North,5,4.0,4.0,45,0.00,,---,0.00,VWS V13.01,2013-02-15 17:58:00,
2013-02-15 12:03:00,47.5,27.2,29.74,North,5,4.0,4.0,45,0.00,,---,0.00,VWS V13.01,2013-02-15 18:03:00,
2013-02-15 12:08:00,47.5,27.2,29.74,North,5,4.0,4.0,45,0.00,,---,0.00,VWS V13.01,2013-02-15 18:08:00,
2013-02-15 12:13:00,47.5,27.2,29.74,North,5,4.0,4.0,45,0.00,,---,0.00,VWS V13.01,2013-02-15 18:13:00,
2013-02-15 12:18:00,47.5,27.2,29.74,North,5,4.0,4.0,45,0.00,,---,0.00,VWS V13.01,2013-02-15 18:18:00,
2013-02-15 12:23:00,47.5,27.2,29.74,North,5,4.0,4.0,45,0.00,,---,0.00,VWS V13.01,2013-02-15 18:23:00,
2013-02-15 12:28:00,47.5,27.2,29.74,North,5,4.0,4.0,45,0.00,,---,0.00,VWS V13.01,2013-02-15 18:28:00,
2013-02-15 12:33:00,47.5,27.2,29.74,North,0,5.4,5.4,45,0.00,,---,0.00,VWS V13.01,2013-02-15 18:33:00,
2013-02-15 12:38:00,47.5,27.2,29.74,North,0,5.4,5.4,45,0.00,,---,0.00,VWS V13.01,2013-02-15 18:38:00,
2013-02-15 12:43:00,47.5,27.2,29.74,North,0,5.4,5.4,45,0.00,,---,0.00,VWS V13.01,2013-02-15 18:43:00,
2013-02-15 12:48:00,47.5,27.2,29.74,North,0,5.4,5.4,45,0.00,,---,0.00,VWS V13.01,2013-02-15 18:48:00,
2013-02-15 12:53:00,47.5,27.2,29.74,NNW,346,8.7,8.7,45,0.00,,---,0.00,VWS V13.01,2013-02-15 18:53:00,
2013-02-15 12:58:00,47.5,27.2,29.74,NNW,331,6.3,6.3,45,0.00,,---,0.00,VWS V13.01,2013-02-15 18:58:00,
2013-02-15 13:03:00,47.5,27.2,29.74,North,353,5.8,5.8,45,0.00,,---,0.00,VWS V13.01,2013-02-15 19:03:00,
2013-02-15 13:08:00,47.5,27.2,29.74,West,274,8.7,8.7,45,0.00,,---,0.00,VWS V13.01,2013-02-15 19:08:00,
2013-02-15 13:13:00,47.5,27.2,29.74,North,353,8.3,8.3,45,0.00,,---,0.00,VWS V13.01,2013-02-15 19:13:00,
2013-02-15 13:18:00,47.5,27.2,29.74,North,353,8.3,8.3,45,0.00,,---,0.00,VWS V13.01,2013-02-15 19:18:00,
2013-02-15 13:23:00,47.5,27.2,29.74,North,3,7.2,7.2,45,0.00,,---,0.00,VWS V13.01,2013-02-15 19:23:00,
2013-02-15 13:28:00,47.5,27.2,29.71,NW,307,4.0,4.0,45,0.00,,---,0.00,VWS V13.01,2013-02-15 19:28:00,
2013-02-15 13:33:00,47.5,27.2,29.71,North,2,8.7,8.7,45,0.00,,---,0.00,VWS V13.01,2013-02-15 19:33:00,
2013-02-15 13:38:00,47.5,27.2,29.71,North,2,8.7,8.7,45,0.00,,---,0.00,VWS V13.01,2013-02-15 19:38:00,
2013-02-15 13:43:00,47.5,27.2,29.71,North,10,6.3,6.3,45,0.00,,---,0.00,VWS V13.01,2013-02-15 19:43:00,
2013-02-15 13:48:00,47.5,27.2,29.71,NNW,340,3.1,4.9,45,0.00,,---,0.00,VWS V13.01,2013-02-15 19:48:00,
2013-02-15 13:53:00,47.5,27.2,29.71,NNW,340,3.1,3.1,45,0.00,,---,0.00,VWS V13.01,2013-02-15 19:53:00,
2013-02-15 13:58:00,47.5,27.2,29.71,NNE,15,5.4,5.4,45,0.00,,---,0.00,VWS V13.01,2013-02-15 19:58:00,
2013-02-15 14:03:00,47.5,27.2,29.71,NNE,15,5.4,5.4,45,0.00,,---,0.00,VWS V13.01,2013-02-15 20:03:00,
2013-02-15 14:08:00,47.5,27.2,29.71,NNW,343,5.4,5.4,45,0.00,,---,0.00,VWS V13.01,2013-02-15 20:08:00,
2013-02-15 14:13:00,47.5,27.2,29.71,North,353,10.1,10.1,45,0.00,,---,0.00,VWS V13.01,2013-02-15 20:13:00,
2013-02-15 14:18:00,47.5,27.2,29.71,NNW,344,3.6,3.6,45,0.00,,---,0.00,VWS V13.01,2013-02-15 20:18:00,
2013-02-15 14:23:00,47.5,27.2,29.71,NW,313,6.3,6.3,45,0.00,,---,0.00,VWS V13.01,2013-02-15 20:23:00,
2013-02-15 14:28:00,47.5,27.2,29.71,North,5,5.8,5.8,45,0.00,,---,0.00,VWS V13.01,2013-02-15 20:28:00,
2013-02-15 14:33:00,47.5,27.2,29.71,NW,310,3.6,3.6,45,0.00,,---,0.00,VWS V13.01,2013-02-15 20:33:00,
2013-02-15 14:38:00,47.5,27.2,29.71,NNW,337,4.5,4.5,45,0.00,,---,0.00,VWS V13.01,2013-02-15 20:38:00,
2013-02-15 14:43:00,47.5,27.2,29.71,North,353,8.1,8.1,45,0.00,,---,0.00,VWS V13.01,2013-02-15 20:43:00,
2013-02-15 14:48:00,47.5,27.2,29.71,NW,306,2.2,2.2,45,0.00,,---,0.00,VWS V13.01,2013-02-15 20:48:00,
2013-02-15 14:53:00,47.5,27.2,29.71,North,349,3.1,3.1,45,0.00,,---,0.00,VWS V13.01,2013-02-15 20:53:00,
2013-02-15 14:58:00,47.5,27.2,29.71,NW,325,10.5,10.5,45,0.00,,---,0.00,VWS V13.01,2013-02-15 20:58:00,
2013-02-15 15:03:00,51.6,21.2,29.71,WNW,287,6.3,6.3,30,0.00,,---,0.00,VWS V13.01,2013-02-15 21:03:00,
2013-02-15 15:08:00,52.0,21.5,29.71,NW,313,6.3,6.3,30,0.00,,---,0.00,VWS V13.01,2013-02-15 21:08:00,
2013-02-15 15:13:00,51.8,21.4,29.71,NNW,338,5.4,5.8,30,0.00,,---,0.00,VWS V13.01,2013-02-15 21:13:00,
2013-02-15 15:18:00,51.6,21.2,29.71,NNE,14,8.1,8.3,30,0.00,,---,0.00,VWS V13.01,2013-02-15 21:18:00,
2013-02-15 15:23:00,51.6,21.2,29.68,North,0,8.3,8.3,30,0.00,,---,0.00,VWS V13.01,2013-02-15 21:23:00,
2013-02-15 15:28:00,51.8,21.4,29.68,NNE,27,5.8,5.8,30,0.00,,---,0.00,VWS V13.01,2013-02-15 21:28:00,
2013-02-15 15:33:00,52.5,21.2,29.68,North,353,6.3,6.3,29,0.00,,---,0.00,VWS V13.01,2013-02-15 21:33:00,
2013-02-15 15:38:00,52.9,22.3,29.68,WNW,302,4.0,7.2,30,0.00,,---,0.00,VWS V13.01,2013-02-15 21:38:00,
2013-02-15 15:43:00,53.1,21.7,29.68,NW,308,3.6,8.3,29,0.00,,---,0.00,VWS V13.01,2013-02-15 21:43:00,
2013-02-15 15:48:00,53.2,21.8,29.68,North,11,9.2,9.2,29,0.00,,---,0.00,VWS V13.01,2013-02-15 21:48:00,
2013-02-15 15:53:00,53.1,20.8,29.68,North,11,8.1,10.1,28,0.00,,---,0.00,VWS V13.01,2013-02-15 21:53:00,
2013-02-15 15:58:00,52.7,20.5,29.68,North,5,6.3,6.3,28,0.00,,---,0.00,VWS V13.01,2013-02-15 21:58:00,
2013-02-15 16:03:00,52.2,20.1,29.68,NNW,339,8.3,10.5,28,0.00,,---,0.00,VWS V13.01,2013-02-15 22:03:00,
2013-02-15 16:08:00,52.0,20.7,29.71,NNW,346,4.0,4.0,29,0.00,,---,0.00,VWS V13.01,2013-02-15 22:08:00,
2013-02-15 16:13:00,52.0,20.7,29.71,NNW,334,5.4,5.4,29,0.00,,---,0.00,VWS V13.01,2013-02-15 22:13:00,
2013-02-15 16:18:00,52.0,20.7,29.71,NW,324,3.6,5.4,29,0.00,,---,0.00,VWS V13.01,2013-02-15 22:18:00,
2013-02-15 16:23:00,52.0,19.9,29.71,WNW,297,4.0,5.4,28,0.00,,---,0.00,VWS V13.01,2013-02-15 22:23:00,
2013-02-15 16:28:00,51.6,19.6,29.71,WNW,301,4.0,6.3,28,0.00,,---,0.00,VWS V13.01,2013-02-15 22:28:00,
2013-02-15 16:33:00,51.3,19.3,29.71,NW,319,10.1,10.1,28,0.00,,---,0.00,VWS V13.01,2013-02-15 22:33:00,
2013-02-15 16:38:00,50.9,19.0,29.71,NNW,334,8.7,8.7,28,0.00,,---,0.00,VWS V13.01,2013-02-15 22:38:00,
2013-02-15 16:43:00,50.7,18.8,29.71,North,357,9.2,9.2,28,0.00,,---,0.00,VWS V13.01,2013-02-15 22:43:00,
2013-02-15 16:48:00,50.7,18.8,29.71,North,357,9.2,9.2,28,0.00,,---,0.00,VWS V13.01,2013-02-15 22:48:00,
2013-02-15 16:53:00,50.7,18.8,29.71,North,357,9.2,9.2,28,0.00,,---,0.00,VWS V13.01,2013-02-15 22:53:00,
2013-02-15 16:58:00,50.7,18.8,29.71,North,357,9.2,9.2,28,0.00,,---,0.00,VWS V13.01,2013-02-15 22:58:00,
2013-02-15 17:03:00,50.7,18.8,29.71,North,357,9.2,9.2,28,0.00,,---,0.00,VWS V13.01,2013-02-15 23:03:00,
2013-02-15 17:08:00,50.7,18.8,29.68,North,357,9.2,9.2,28,0.00,,---,0.00,VWS V13.01,2013-02-15 23:08:00,
2013-02-15 17:13:00,50.7,18.8,29.68,North,357,9.2,9.2,28,0.00,,---,0.00,VWS V13.01,2013-02-15 23:13:00,
2013-02-15 17:18:00,50.7,18.8,29.68,WNW,287,3.6,3.6,28,0.00,,---,0.00,VWS V13.01,2013-02-15 23:18:00,
2013-02-15 17:23:00,50.7,18.8,29.68,WNW,287,3.6,3.6,28,0.00,,---,0.00,VWS V13.01,2013-02-15 23:23:00,
2013-02-15 17:28:00,50.7,18.8,29.71,WNW,287,3.6,3.6,28,0.00,,---,0.00,VWS V13.01,2013-02-15 23:28:00,
2013-02-15 17:33:00,50.7,18.8,29.71,WNW,287,3.6,3.6,28,0.00,,---,0.00,VWS V13.01,2013-02-15 23:33:00,
2013-02-15 17:38:00,50.7,18.8,29.71,WNW,287,3.6,3.6,28,0.00,,---,0.00,VWS V13.01,2013-02-15 23:38:00,
2013-02-15 17:43:00,50.7,18.8,29.71,WNW,301,2.7,2.7,28,0.00,,---,0.00,VWS V13.01,2013-02-15 23:43:00,
2013-02-15 17:48:00,50.7,18.8,29.71,WNW,301,2.7,2.7,28,0.00,,---,0.00,VWS V13.01,2013-02-15 23:48:00,
2013-02-15 17:53:00,50.7,18.8,29.71,WNW,301,2.7,2.7,28,0.00,,---,0.00,VWS V13.01,2013-02-15 23:53:00,
2013-02-15 17:58:00,50.7,18.8,29.71,WNW,301,2.7,2.7,28,0.00,,---,0.00,VWS V13.01,2013-02-15 23:58:00,
2013-02-15 18:03:00,50.7,18.8,29.71,WNW,301,2.7,2.7,28,0.00,,---,0.00,VWS V13.01,2013-02-16 00:03:00,
2013-02-15 18:08:00,50.7,18.8,29.71,WNW,301,2.7,2.7,28,0.00,,---,0.00,VWS V13.01,2013-02-16 00:08:00,
2013-02-15 18:13:00,50.7,18.8,29.71,WNW,301,2.7,2.7,28,0.00,,---,0.00,VWS V13.01,2013-02-16 00:13:00,
2013-02-15 18:18:00,50.7,18.8,29.71,WNW,301,2.7,2.7,28,0.00,,---,0.00,VWS V13.01,2013-02-16 00:18:00,
2013-02-15 18:23:00,50.7,18.8,29.74,WNW,301,2.7,2.7,28,0.00,,---,0.00,VWS V13.01,2013-02-16 00:23:00,
2013-02-15 18:28:00,50.7,18.8,29.74,WNW,301,2.7,2.7,28,0.00,,---,0.00,VWS V13.01,2013-02-16 00:28:00,
2013-02-15 18:33:00,50.7,18.8,29.74,WNW,301,2.7,2.7,28,0.00,,---,0.00,VWS V13.01,2013-02-16 00:33:00,
2013-02-15 18:38:00,50.7,18.8,29.74,WNW,301,2.7,2.7,28,0.00,,---,0.00,VWS V13.01,2013-02-16 00:38:00,
2013-02-15 18:43:00,50.7,18.8,29.74,WNW,301,2.7,2.7,28,0.00,,---,0.00,VWS V13.01,2013-02-16 00:43:00,
2013-02-15 18:48:00,50.7,18.8,29.74,WNW,301,2.7,2.7,28,0.00,,---,0.00,VWS V13.01,2013-02-16 00:48:00,
2013-02-15 18:53:00,50.7,18.8,29.74,WNW,301,2.7,2.7,28,0.00,,---,0.00,VWS V13.01,2013-02-16 00:53:00,
2013-02-15 18:58:00,50.7,18.8,29.74,WNW,301,2.7,2.7,28,0.00,,---,0.00,VWS V13.01,2013-02-16 00:58:00,
2013-02-15 19:03:00,50.7,18.8,29.74,WNW,301,2.7,2.7,28,0.00,,---,0.00,VWS V13.01,2013-02-16 01:03:00,
2013-02-15 19:08:00,50.7,18.8,29.74,WNW,301,2.7,2.7,28,0.00,,---,0.00,VWS V13.01,2013-02-16 01:08:00,
2013-02-15 19:13:00,50.7,18.8,29.74,WNW,301,2.7,2.7,28,0.00,,---,0.00,VWS V13.01,2013-02-16 01:13:00,
2013-02-15 19:18:00,50.7,18.8,29.74,WNW,301,2.7,2.7,28,0.00,,---,0.00,VWS V13.01,2013-02-16 01:18:00,
2013-02-15 19:23:00,50.7,18.8,29.74,WNW,301,2.7,2.7,28,0.00,,---,0.00,VWS V13.01,2013-02-16 01:23:00,
2013-02-15 19:28:00,50.7,18.8,29.74,WNW,301,2.7,2.7,28,0.00,,---,0.00,VWS V13.01,2013-02-16 01:28:00,
2013-02-15 19:33:00,50.7,18.8,29.74,WNW,301,2.7,2.7,28,0.00,,---,0.00,VWS V13.01,2013-02-16 01:33:00,
2013-02-15 19:38:00,50.7,18.8,29.74,WNW,301,2.7,2.7,28,0.00,,---,0.00,VWS V13.01,2013-02-16 01:38:00,
2013-02-15 19:43:00,50.7,18.8,29.74,WNW,301,2.7,2.7,28,0.00,,---,0.00,VWS V13.01,2013-02-16 01:43:00,
2013-02-15 19:48:00,50.7,18.8,29.74,WNW,301,2.7,2.7,28,0.00,,---,0.00,VWS V13.01,2013-02-16 01:48:00,
2013-02-15 19:53:00,50.7,18.8,29.74,WNW,301,2.7,2.7,28,0.00,,---,0.00,VWS V13.01,2013-02-16 01:53:00,
2013-02-15 19:58:00,50.7,18.8,29.77,WNW,301,2.7,2.7,28,0.00,,---,0.00,VWS V13.01,2013-02-16 01:58:00,
2013-02-15 20:03:00,50.7,18.8,29.77,WNW,301,2.7,2.7,28,0.00,,---,0.00,VWS V13.01,2013-02-16 02:03:00,
2013-02-15 20:08:00,50.7,18.8,29.77,WNW,301,2.7,2.7,28,0.00,,---,0.00,VWS V13.01,2013-02-16 02:08:00,
2013-02-15 20:13:00,50.7,18.8,29.77,WNW,301,2.7,2.7,28,0.00,,---,0.00,VWS V13.01,2013-02-16 02:13:00,
2013-02-15 20:18:00,50.7,18.8,29.77,WNW,301,2.7,2.7,28,0.00,,---,0.00,VWS V13.01,2013-02-16 02:18:00,
2013-02-15 20:23:00,50.7,18.8,29.77,WNW,301,2.7,2.7,28,0.00,,---,0.00,VWS V13.01,2013-02-16 02:23:00,
2013-02-15 20:28:00,50.7,18.8,29.77,WNW,301,2.7,2.7,28,0.00,,---,0.00,VWS V13.01,2013-02-16 02:28:00,
2013-02-15 20:33:00,50.7,18.8,29.77,WNW,301,2.7,2.7,28,0.00,,---,0.00,VWS V13.01,2013-02-16 02:33:00,
2013-02-15 20:38:00,50.7,18.8,29.77,WNW,301,2.7,2.7,28,0.00,,---,0.00,VWS V13.01,2013-02-16 02:38:00,
2013-02-15 20:43:00,50.7,18.8,29.77,WNW,301,2.7,2.7,28,0.00,,---,0.00,VWS V13.01,2013-02-16 02:43:00,
2013-02-15 20:48:00,43.3,16.9,29.77,WNW,301,2.7,2.7,34,0.00,,---,0.00,VWS V13.01,2013-02-16 02:48:00,
2013-02-15 20:53:00,43.3,16.9,29.77,WNW,301,2.7,2.7,34,0.00,,---,0.00,VWS V13.01,2013-02-16 02:53:00,
2013-02-15 20:58:00,43.3,16.9,29.77,WNW,301,2.7,2.7,34,0.00,,---,0.00,VWS V13.01,2013-02-16 02:58:00,
2013-02-15 21:03:00,42.8,17.1,29.77,WNW,301,2.7,2.7,35,0.00,,---,0.00,VWS V13.01,2013-02-16 03:03:00,
2013-02-15 21:08:00,42.6,17.5,29.77,WNW,301,2.7,2.7,36,0.00,,---,0.00,VWS V13.01,2013-02-16 03:08:00,
2013-02-15 21:13:00,42.6,17.5,29.77,WNW,301,2.7,2.7,36,0.00,,---,0.00,VWS V13.01,2013-02-16 03:13:00,
2013-02-15 21:18:00,42.6,18.2,29.77,WNW,301,2.7,2.7,37,0.00,,---,0.00,VWS V13.01,2013-02-16 03:18:00,
2013-02-15 21:23:00,42.6,18.2,29.77,WNW,301,2.7,2.7,37,0.00,,---,0.00,VWS V13.01,2013-02-16 03:23:00,
2013-02-15 21:28:00,42.6,18.8,29.77,WNW,301,2.7,2.7,38,0.00,,---,0.00,VWS V13.01,2013-02-16 03:28:00,
2013-02-15 21:33:00,42.4,18.6,29.77,WNW,301,2.7,2.7,38,0.00,,---,0.00,VWS V13.01,2013-02-16 03:33:00,
2013-02-15 21:38:00,42.4,18.6,29.77,WNW,301,2.7,2.7,38,0.00,,---,0.00,VWS V13.01,2013-02-16 03:38:00,
2013-02-15 21:43:00,42.3,18.5,29.77,WNW,301,2.7,2.7,38,0.00,,---,0.00,VWS V13.01,2013-02-16 03:43:00,
2013-02-15 21:48:00,42.3,19.1,29.77,WNW,301,2.7,2.7,39,0.00,,---,0.00,VWS V13.01,2013-02-16 03:48:00,
2013-02-15 21:53:00,42.3,19.1,29.77,WNW,301,2.7,2.7,39,0.00,,---,0.00,VWS V13.01,2013-02-16 03:53:00,
2013-02-15 21:58:00,42.3,19.1,29.80,WNW,301,2.7,2.7,39,0.00,,---,0.00,VWS V13.01,2013-02-16 03:58:00,
2013-02-15 22:03:00,41.7,18.6,29.80,WNW,301,2.7,2.7,39,0.00,,---,0.00,VWS V13.01,2013-02-16 04:03:00,
2013-02-15 22:08:00,41.4,18.3,29.80,WNW,301,2.7,2.7,39,0.00,,---,0.00,VWS V13.01,2013-02-16 04:08:00,
2013-02-15 22:13:00,41.2,18.1,29.80,WNW,301,2.7,2.7,39,0.00,,---,0.00,VWS V13.01,2013-02-16 04:13:00,
2013-02-15 22:18:00,41.0,18.0,29.80,WNW,301,2.7,2.7,39,0.00,,---,0.00,VWS V13.01,2013-02-16 04:18:00,
2013-02-15 22:23:00,41.0,18.0,29.77,WNW,301,2.7,2.7,39,0.00,,---,0.00,VWS V13.01,2013-02-16 04:23:00,
2013-02-15 22:28:00,40.8,18.4,29.77,WNW,301,2.7,2.7,40,0.00,,---,0.00,VWS V13.01,2013-02-16 04:28:00,